createdAt,value
2018-07-17T00:00:22.814Z,22.80
2018-07-17T00:02:55.266Z,22.80
2018-07-17T00:05:27.706Z,22.60
2018-07-17T00:08:00.057Z,22.50
2018-07-17T00:10:32.438Z,22.50
2018-07-17T00:13:05.339Z,22.40
2018-07-17T00:15:37.536Z,22.30
2018-07-17T00:18:09.842Z,22.20
2018-07-17T00:20:42.169Z,22.10
2018-07-17T00:23:14.616Z,22.10
2018-07-17T00:25:46.877Z,22.00
2018-07-17T00:28:19.330Z,21.90
2018-07-17T00:34:14.361Z,21.70
2018-07-17T00:39:18.090Z,21.50
2018-07-17T00:41:50.590Z,21.40
2018-07-17T00:44:23.035Z,21.30
2018-07-17T00:46:55.887Z,21.20
2018-07-17T00:49:28.279Z,21.10
2018-07-17T00:52:01.286Z,21.10
2018-07-17T00:54:33.773Z,21.00
2018-07-17T00:57:06.232Z,21.00
2018-07-17T00:59:38.612Z,20.90
2018-07-17T01:02:15.335Z,20.80
2018-07-17T01:04:52.012Z,20.80
2018-07-17T01:07:28.752Z,20.70
2018-07-17T01:10:05.463Z,20.60
2018-07-17T01:12:36.131Z,20.50
2018-07-17T01:15:19.330Z,20.40
2018-07-17T01:17:54.468Z,20.40
2018-07-17T01:20:27.071Z,20.40
2018-07-17T01:23:00.207Z,20.40
2018-07-17T01:25:44.507Z,20.40
2018-07-17T01:28:16.936Z,20.40
2018-07-17T01:30:49.302Z,20.40
2018-07-17T01:33:21.835Z,20.40
2018-07-17T01:38:34.223Z,20.30
2018-07-17T01:41:09.463Z,20.30
2018-07-17T01:43:43.282Z,20.10
2018-07-17T01:46:16.062Z,20.10
2018-07-17T01:48:48.711Z,20.10
2018-07-17T01:51:21.105Z,20.00
2018-07-17T01:53:53.551Z,19.90
2018-07-17T01:56:26.023Z,19.90
2018-07-17T01:58:58.398Z,19.80
2018-07-17T02:01:31.186Z,19.80
2018-07-17T02:04:04.035Z,19.70
2018-07-17T02:06:36.408Z,19.70
2018-07-17T02:09:09.824Z,19.60
2018-07-17T02:11:42.226Z,19.60
2018-07-17T02:14:17.078Z,19.60
2018-07-17T02:16:50.808Z,19.60
2018-07-17T02:19:24.440Z,19.60
2018-07-17T02:21:57.037Z,19.60
2018-07-17T02:24:29.828Z,19.50
2018-07-17T02:27:02.348Z,19.50
2018-07-17T02:29:34.788Z,19.40
2018-07-17T02:32:07.220Z,19.40
2018-07-17T02:38:01.830Z,19.40
2018-07-17T02:40:39.379Z,19.30
2018-07-17T02:43:14.857Z,19.30
2018-07-17T02:45:49.445Z,19.20
2018-07-17T02:48:32.243Z,19.20
2018-07-17T02:51:08.989Z,19.20
2018-07-17T02:53:43.254Z,19.20
2018-07-17T02:56:16.267Z,19.10
2018-07-17T02:58:56.351Z,19.10
2018-07-17T03:01:28.568Z,19.00
2018-07-17T03:04:03.285Z,18.90
2018-07-17T03:06:35.790Z,18.80
2018-07-17T03:09:10.648Z,18.90
2018-07-17T03:11:45.360Z,18.90
2018-07-17T03:14:17.643Z,18.90
2018-07-17T03:20:11.879Z,18.80
2018-07-17T03:22:47.115Z,18.70
2018-07-17T03:25:26.273Z,18.70
2018-07-17T03:27:59.248Z,18.60
2018-07-17T03:33:11.172Z,18.50
2018-07-17T03:38:16.465Z,18.50
2018-07-17T03:40:49.516Z,18.50
2018-07-17T03:43:23.261Z,18.50
2018-07-17T03:46:12.230Z,18.40
2018-07-17T03:48:45.585Z,18.40
2018-07-17T03:51:18.901Z,18.30
2018-07-17T03:53:51.522Z,18.30
2018-07-17T03:56:23.870Z,18.30
2018-07-17T03:58:56.208Z,18.30
2018-07-17T04:01:28.718Z,18.30
2018-07-17T04:04:02.175Z,18.20
2018-07-17T04:06:35.491Z,18.20
2018-07-17T04:09:11.218Z,18.20
2018-07-17T04:11:48.603Z,18.20
2018-07-17T04:14:21.062Z,18.20
2018-07-17T04:16:58.017Z,18.20
2018-07-17T04:19:31.369Z,18.20
2018-07-17T04:24:40.893Z,18.30
2018-07-17T04:27:15.844Z,18.30
2018-07-17T04:29:48.567Z,18.30
2018-07-17T04:32:21.618Z,18.20
2018-07-17T04:34:55.730Z,18.10
2018-07-17T04:37:29.056Z,18.10
2018-07-17T04:40:03.237Z,18.10
2018-07-17T04:42:35.811Z,18.10
2018-07-17T04:45:08.318Z,18.10
2018-07-17T04:47:40.548Z,17.90
2018-07-17T04:50:12.985Z,17.90
2018-07-17T04:52:46.547Z,17.90
2018-07-17T04:55:19.850Z,17.90
2018-07-17T04:57:55.145Z,17.90
2018-07-17T05:00:27.954Z,17.80
2018-07-17T05:03:00.228Z,17.70
2018-07-17T05:05:35.670Z,17.60
2018-07-17T05:08:08.566Z,17.60
2018-07-17T05:10:40.899Z,17.60
2018-07-17T05:13:13.287Z,17.50
2018-07-17T05:15:51.521Z,17.50
2018-07-17T05:18:23.938Z,17.50
2018-07-17T05:20:56.320Z,17.40
2018-07-17T05:23:28.988Z,17.40
2018-07-17T05:26:03.484Z,17.30
2018-07-17T05:31:08.556Z,17.30
2018-07-17T05:33:42.325Z,17.40
2018-07-17T05:38:55.455Z,17.50
2018-07-17T05:44:50.010Z,17.70
2018-07-17T05:47:22.265Z,17.60
2018-07-17T05:49:54.702Z,17.60
2018-07-17T05:55:47.860Z,17.60
2018-07-17T05:58:20.417Z,17.50
2018-07-17T06:00:53.044Z,17.50
2018-07-17T06:03:25.699Z,17.50
2018-07-17T06:06:26.993Z,17.40
2018-07-17T06:08:59.341Z,17.50
2018-07-17T06:11:31.544Z,17.50
2018-07-17T06:14:05.753Z,17.50
2018-07-17T06:16:38.228Z,17.60
2018-07-17T06:19:10.829Z,17.60
2018-07-17T06:21:43.139Z,17.70
2018-07-17T06:24:15.526Z,17.70
2018-07-17T06:26:47.650Z,17.70
2018-07-17T06:29:20.151Z,17.70
2018-07-17T06:31:52.547Z,17.70
2018-07-17T06:34:24.778Z,17.80
2018-07-17T06:36:57.186Z,17.80
2018-07-17T06:39:29.669Z,17.80
2018-07-17T06:45:23.072Z,17.70
2018-07-17T06:47:55.794Z,17.80
2018-07-17T06:50:28.217Z,17.70
2018-07-17T06:53:00.457Z,17.70
2018-07-17T06:55:32.959Z,17.80
2018-07-17T06:58:05.408Z,17.70
2018-07-17T07:00:37.642Z,17.70
2018-07-17T07:03:10.040Z,17.70
2018-07-17T07:06:07.588Z,17.60
2018-07-17T07:08:39.778Z,17.60
2018-07-17T07:11:12.148Z,17.60
2018-07-17T07:13:44.406Z,17.50
2018-07-17T07:16:17.471Z,17.60
2018-07-17T07:18:49.683Z,17.50
2018-07-17T07:21:22.048Z,17.50
2018-07-17T07:23:54.484Z,17.50
2018-07-17T07:29:55.308Z,17.50
2018-07-17T07:32:27.680Z,17.50
2018-07-17T07:34:59.997Z,17.50
2018-07-17T07:40:53.825Z,17.50
2018-07-17T07:43:26.093Z,17.40
2018-07-17T07:45:58.365Z,17.50
2018-07-17T07:48:30.617Z,17.60
2018-07-17T07:51:02.969Z,17.60
2018-07-17T07:53:35.237Z,17.50
2018-07-17T07:56:07.512Z,17.50
2018-07-17T07:58:39.890Z,17.50
2018-07-17T08:01:12.159Z,17.50
2018-07-17T08:03:44.479Z,17.40
2018-07-17T08:09:38.708Z,17.30
2018-07-17T08:12:12.325Z,17.40
2018-07-17T08:14:45.054Z,17.40
2018-07-17T08:17:17.859Z,17.40
2018-07-17T08:19:50.728Z,17.40
2018-07-17T08:22:23.421Z,17.40
2018-07-17T08:24:56.007Z,17.30
2018-07-17T08:30:00.117Z,17.30
2018-07-17T08:32:32.896Z,17.30
2018-07-17T08:35:05.844Z,17.20
2018-07-17T08:37:38.737Z,17.10
2018-07-17T08:40:11.313Z,17.00
2018-07-17T08:42:44.124Z,17.00
2018-07-17T08:45:17.955Z,17.00
2018-07-17T08:51:11.376Z,17.20
2018-07-17T08:53:43.886Z,17.30
2018-07-17T08:56:16.338Z,17.20
2018-07-17T08:58:48.813Z,17.20
2018-07-17T09:01:21.280Z,17.10
2018-07-17T09:03:53.757Z,17.10
2018-07-17T09:06:26.285Z,17.00
2018-07-17T09:08:59.838Z,17.00
2018-07-17T09:14:03.494Z,17.00
2018-07-17T09:16:35.985Z,17.10
2018-07-17T09:22:30.092Z,17.20
2018-07-17T09:25:03.818Z,17.10
2018-07-17T09:27:36.618Z,17.10
2018-07-17T09:30:10.140Z,17.10
2018-07-17T09:32:43.422Z,17.10
2018-07-17T09:35:16.211Z,17.00
2018-07-17T09:37:49.219Z,17.00
2018-07-17T09:40:22.152Z,17.00
2018-07-17T09:46:15.511Z,16.90
2018-07-17T09:48:47.804Z,16.90
2018-07-17T09:51:20.026Z,16.90
2018-07-17T09:53:52.304Z,16.80
2018-07-17T09:56:24.719Z,16.80
2018-07-17T09:58:57.156Z,16.80
2018-07-17T10:01:33.813Z,16.70
2018-07-17T10:04:06.033Z,16.70
2018-07-17T10:06:38.459Z,16.70
2018-07-17T10:09:10.949Z,16.70
2018-07-17T10:11:43.243Z,16.70
2018-07-17T10:14:15.694Z,16.60
2018-07-17T10:16:47.955Z,16.70
2018-07-17T10:19:20.160Z,16.70
2018-07-17T10:25:13.759Z,16.70
2018-07-17T10:27:46.402Z,16.70
2018-07-17T10:30:18.964Z,16.70
2018-07-17T10:32:51.664Z,16.70
2018-07-17T10:35:24.170Z,16.60
2018-07-17T10:37:56.718Z,16.60
2018-07-17T10:40:29.424Z,16.60
2018-07-17T10:43:01.974Z,16.60
2018-07-17T10:45:34.696Z,16.70
2018-07-17T10:48:07.304Z,16.70
2018-07-17T10:50:40.007Z,16.70
2018-07-17T10:53:12.559Z,16.80
2018-07-17T10:55:45.137Z,16.90
2018-07-17T11:01:38.400Z,16.90
2018-07-17T11:04:10.980Z,16.90
2018-07-17T11:06:43.500Z,16.90
2018-07-17T11:09:16.117Z,16.90
2018-07-17T11:11:48.675Z,16.80
2018-07-17T11:14:21.520Z,16.80
2018-07-17T11:16:54.104Z,16.80
2018-07-17T11:19:26.584Z,16.70
2018-07-17T11:21:59.541Z,16.70
2018-07-17T11:24:32.032Z,16.60
2018-07-17T11:27:04.659Z,16.60
2018-07-17T11:29:37.185Z,16.60
2018-07-17T11:32:09.950Z,16.60
2018-07-17T11:34:42.475Z,16.60
2018-07-17T11:37:14.921Z,16.60
2018-07-17T11:39:47.368Z,16.60
2018-07-17T11:42:20.259Z,16.60
2018-07-17T11:44:53.395Z,16.70
2018-07-17T11:47:26.117Z,16.70
2018-07-17T11:49:58.770Z,16.70
2018-07-17T11:52:31.478Z,16.80
2018-07-17T11:55:04.130Z,16.70
2018-07-17T11:57:37.259Z,16.80
2018-07-17T12:00:10.847Z,16.90
2018-07-17T12:02:45.268Z,16.80
2018-07-17T12:05:19.447Z,16.90
2018-07-17T12:07:52.249Z,16.90
2018-07-17T12:10:25.128Z,17.00
2018-07-17T12:13:00.672Z,17.00
2018-07-17T12:15:33.288Z,17.00
2018-07-17T12:18:06.050Z,17.00
2018-07-17T12:20:38.950Z,17.00
2018-07-17T12:23:13.209Z,17.00
2018-07-17T12:25:45.905Z,17.00
2018-07-17T12:28:18.477Z,17.00
2018-07-17T12:30:51.672Z,17.00
2018-07-17T12:33:24.279Z,17.10
2018-07-17T12:35:57.004Z,17.10
2018-07-17T12:41:01.178Z,17.10
2018-07-17T12:43:33.953Z,17.10
2018-07-17T12:46:08.530Z,17.20
2018-07-17T12:48:41.668Z,17.20
2018-07-17T12:51:14.651Z,17.30
2018-07-17T12:53:47.596Z,17.40
2018-07-17T12:56:20.932Z,17.50
2018-07-17T12:58:55.470Z,17.60
2018-07-17T13:01:28.386Z,17.70
2018-07-17T13:04:01.551Z,17.90
2018-07-17T13:06:34.227Z,17.90
2018-07-17T13:09:14.883Z,18.10
2018-07-17T13:11:54.399Z,18.20
2018-07-17T13:14:44.926Z,18.20
2018-07-17T13:17:34.648Z,18.30
2018-07-17T13:23:04.254Z,18.80
2018-07-17T13:25:37.960Z,19.00
2018-07-17T13:28:10.755Z,19.70
2018-07-17T13:30:43.619Z,20.30
2018-07-17T13:33:20.131Z,20.50
2018-07-17T13:35:52.883Z,20.50
2018-07-17T13:38:26.964Z,20.60
2018-07-17T13:40:59.466Z,20.80
2018-07-17T13:43:32.307Z,20.20
2018-07-17T13:46:06.041Z,20.40
2018-07-17T13:48:38.654Z,20.40
2018-07-17T13:51:13.097Z,20.10
2018-07-17T13:54:14.501Z,20.10
2018-07-17T13:56:47.198Z,20.10
2018-07-17T13:59:19.506Z,20.10
2018-07-17T14:01:52.032Z,20.30
2018-07-17T14:04:24.596Z,20.50
2018-07-17T14:06:57.185Z,20.70
2018-07-17T14:09:29.812Z,21.10
2018-07-17T14:15:23.181Z,21.50
2018-07-17T14:17:55.762Z,22.00
2018-07-17T14:20:28.936Z,22.30
2018-07-17T14:23:01.379Z,22.10
2018-07-17T14:25:34.161Z,22.20
2018-07-17T14:30:38.040Z,22.10
2018-07-17T14:33:11.016Z,22.30
2018-07-17T14:35:43.459Z,22.70
2018-07-17T14:38:17.843Z,21.80
2018-07-17T14:40:50.347Z,21.40
2018-07-17T14:43:22.971Z,21.20
2018-07-17T14:45:55.639Z,20.90
2018-07-17T14:48:28.189Z,21.10
2018-07-17T14:51:01.937Z,21.00
2018-07-17T14:53:38.108Z,20.90
2018-07-17T14:56:11.016Z,21.00
2018-07-17T14:58:49.308Z,20.90
2018-07-17T15:01:21.930Z,20.70
2018-07-17T15:03:54.446Z,20.60
2018-07-17T15:06:26.872Z,20.80
2018-07-17T15:08:59.580Z,21.10
2018-07-17T15:14:19.773Z,21.60
2018-07-17T15:16:53.317Z,21.80
2018-07-17T15:19:29.968Z,21.60
2018-07-17T15:22:05.085Z,21.50
2018-07-17T15:24:38.544Z,21.50
2018-07-17T15:27:12.621Z,22.20
2018-07-17T15:29:45.738Z,22.40
2018-07-17T15:32:18.526Z,22.70
2018-07-17T15:37:49.398Z,24.00
2018-07-17T15:43:06.405Z,24.30
2018-07-17T15:45:42.606Z,24.00
2018-07-17T15:48:18.503Z,24.90
2018-07-17T15:53:28.192Z,25.60
2018-07-17T15:56:29.875Z,25.40
2018-07-17T15:59:07.925Z,24.30
2018-07-17T16:01:45.363Z,24.00
2018-07-17T16:04:22.868Z,24.10
2018-07-17T16:06:55.872Z,24.40
2018-07-17T16:09:28.442Z,24.00
2018-07-17T16:12:01.843Z,23.70
2018-07-17T16:14:34.873Z,24.20
2018-07-17T16:17:07.290Z,24.90
2018-07-17T16:23:01.867Z,25.00
2018-07-17T16:25:34.495Z,24.80
2018-07-17T16:28:06.782Z,25.20
2018-07-17T16:30:40.198Z,24.80
2018-07-17T16:33:12.951Z,24.30
2018-07-17T16:39:08.481Z,24.80
2018-07-17T16:47:34.524Z,25.40
2018-07-17T16:50:07.876Z,25.20
2018-07-17T16:52:41.372Z,25.20
2018-07-17T16:55:20.489Z,25.50
2018-07-17T17:01:25.493Z,26.40
2018-07-17T17:03:59.068Z,25.30
2018-07-17T17:06:32.445Z,25.50
2018-07-17T17:09:04.960Z,25.70
2018-07-17T17:11:45.472Z,25.70
2018-07-17T17:14:18.029Z,25.30
2018-07-17T17:16:50.603Z,26.00
2018-07-17T17:19:23.177Z,25.90
2018-07-17T17:25:16.649Z,26.20
2018-07-17T17:27:49.953Z,25.50
2018-07-17T17:30:23.656Z,26.00
2018-07-17T17:32:58.759Z,25.40
2018-07-17T17:35:31.456Z,26.00
2018-07-17T17:38:04.431Z,26.10
2018-07-17T17:40:37.035Z,26.20
2018-07-17T17:43:09.942Z,25.50
2018-07-17T17:45:44.225Z,25.50
2018-07-17T17:48:16.881Z,25.80
2018-07-17T17:50:49.557Z,26.00
2018-07-17T17:53:22.556Z,25.80
2018-07-17T17:56:01.955Z,25.90
2018-07-17T17:58:39.264Z,26.20
2018-07-17T18:01:11.581Z,26.50
2018-07-17T18:03:44.614Z,26.20
2018-07-17T18:06:18.582Z,26.20
2018-07-17T18:08:51.259Z,25.90
2018-07-17T18:11:23.819Z,25.90
2018-07-17T18:13:56.644Z,25.60
2018-07-17T18:16:29.153Z,25.40
2018-07-17T18:19:03.149Z,25.30
2018-07-17T18:21:36.470Z,25.10
2018-07-17T18:27:24.963Z,25.40
2018-07-17T18:30:08.230Z,25.80
2018-07-17T18:32:55.939Z,26.70
2018-07-17T18:38:53.276Z,25.70
2018-07-17T18:41:25.903Z,25.80
2018-07-17T18:43:59.557Z,25.70
2018-07-17T18:46:33.139Z,25.00
2018-07-17T18:49:05.740Z,24.90
2018-07-17T18:51:38.347Z,24.80
2018-07-17T18:54:11.034Z,24.50
2018-07-17T18:57:08.721Z,24.80
2018-07-17T19:00:01.181Z,24.90
2018-07-17T19:02:49.218Z,24.70
2018-07-17T19:05:48.253Z,25.00
2018-07-17T19:11:10.082Z,25.90
2018-07-17T19:13:43.646Z,26.40
2018-07-17T19:16:20.860Z,27.20
2018-07-17T19:18:55.282Z,27.10
2018-07-17T19:21:28.275Z,26.40
2018-07-17T19:24:00.969Z,26.10
2018-07-17T19:27:21.269Z,26.30
2018-07-17T19:29:53.768Z,26.40
2018-07-17T19:32:30.261Z,26.50
2018-07-17T19:35:02.740Z,26.00
2018-07-17T19:37:35.093Z,25.30
2018-07-17T19:40:07.869Z,24.80
2018-07-17T19:42:40.801Z,24.60
2018-07-17T19:45:17.376Z,24.50
2018-07-17T19:51:17.908Z,25.20
2018-07-17T19:53:51.297Z,25.60
2018-07-17T19:56:31.979Z,25.70
2018-07-17T19:59:07.511Z,25.90
2018-07-17T20:01:48.525Z,25.50
2018-07-17T20:04:21.815Z,25.00
2018-07-17T20:06:54.219Z,25.40
2018-07-17T20:09:26.669Z,25.80
2018-07-17T20:12:00.853Z,25.90
2018-07-17T20:14:33.383Z,25.90
2018-07-17T20:17:07.789Z,25.90
2018-07-17T20:19:40.391Z,25.10
2018-07-17T20:22:12.848Z,24.80
2018-07-17T20:24:45.258Z,24.70
2018-07-17T20:27:18.059Z,24.60
2018-07-17T20:29:50.582Z,24.40
2018-07-17T20:32:22.887Z,24.90
2018-07-17T20:34:55.936Z,25.40
2018-07-17T20:37:42.319Z,25.50
2018-07-17T20:40:15.063Z,25.60
2018-07-17T20:42:47.439Z,25.80
2018-07-17T20:45:19.766Z,25.70
2018-07-17T20:47:52.158Z,25.50
2018-07-17T20:50:24.577Z,25.70
2018-07-17T20:52:56.986Z,26.00
2018-07-17T20:55:30.543Z,26.10
2018-07-17T20:58:02.892Z,25.50
2018-07-17T21:00:39.225Z,25.30
2018-07-17T21:03:11.781Z,25.30
2018-07-17T21:05:44.585Z,25.30
2018-07-17T21:08:17.046Z,25.00
2018-07-17T21:11:05.001Z,25.20
2018-07-17T21:13:55.338Z,25.20
2018-07-17T21:16:27.755Z,25.70
2018-07-17T21:19:18.597Z,25.40
2018-07-17T21:21:54.106Z,24.70
2018-07-17T21:24:26.932Z,24.40
2018-07-17T21:27:04.607Z,24.40
2018-07-17T21:29:45.851Z,24.10
2018-07-17T21:35:48.795Z,24.00
2018-07-17T21:38:21.093Z,24.60
2018-07-17T21:40:54.161Z,24.60
2018-07-17T21:43:26.477Z,24.60
2018-07-17T21:46:00.085Z,25.10
2018-07-17T21:48:34.277Z,25.10
2018-07-17T21:54:30.593Z,25.20
2018-07-17T21:57:03.079Z,24.70
2018-07-17T21:59:35.496Z,24.40
2018-07-17T22:05:29.355Z,23.90
2018-07-17T22:08:02.437Z,24.70
2018-07-17T22:10:35.369Z,24.70
2018-07-17T22:13:08.218Z,25.20
2018-07-17T22:15:41.884Z,25.10
2018-07-17T22:18:14.723Z,24.70
2018-07-17T22:20:48.541Z,24.20
2018-07-17T22:23:22.922Z,24.10
2018-07-17T22:25:57.139Z,24.10
2018-07-17T22:28:34.575Z,23.80
2018-07-17T22:31:15.569Z,23.80
2018-07-17T22:33:49.742Z,23.80
2018-07-17T22:36:24.594Z,23.70
2018-07-17T22:38:59.609Z,23.70
2018-07-17T22:41:34.522Z,23.90
2018-07-17T22:44:08.879Z,23.80
2018-07-17T22:46:44.119Z,23.60
2018-07-17T22:49:25.766Z,23.60
2018-07-17T22:52:00.375Z,23.60
2018-07-17T22:54:34.682Z,23.50
2018-07-17T22:57:09.378Z,23.40
2018-07-17T22:59:45.660Z,23.30
2018-07-17T23:02:19.653Z,23.20
2018-07-17T23:04:53.766Z,23.20
2018-07-17T23:07:29.026Z,23.30
2018-07-17T23:10:02.976Z,23.00
2018-07-17T23:12:37.248Z,23.10
2018-07-17T23:15:11.316Z,23.00
2018-07-17T23:17:44.987Z,22.80
2018-07-17T23:20:18.016Z,22.70
2018-07-17T23:23:00.223Z,22.60
2018-07-17T23:25:34.529Z,22.60
2018-07-17T23:30:55.706Z,22.50
2018-07-17T23:33:29.705Z,22.50
2018-07-17T23:36:06.528Z,22.40
2018-07-17T23:38:40.890Z,22.40
2018-07-17T23:41:22.329Z,22.40
2018-07-17T23:43:55.481Z,22.50
2018-07-17T23:46:28.790Z,22.50
2018-07-17T23:49:05.834Z,22.30
2018-07-17T23:52:23.712Z,22.40
2018-07-17T23:54:56.498Z,22.50
2018-07-17T23:57:30.637Z,22.20
